KIWD Weather

FAA AWOS (Automated Weather Observing System)

Weather observations for the last 3 days click here.

KIWD

METAR
KIWD 181403Z AUTO 33007KT 10SM BKN007 OVC013 16/15 A2982 RMK AO2 CIG 004V009
KIWD 181356Z AUTO 31006KT 10SM BKN005 BKN009 OVC013 16/15 A2982 RMK AO2 SLP098 T01610150 TSNO
KIWD 181317Z AUTO 30006KT 10SM BKN007 BKN011 OVC018 16/15 A2982 RMK AO2 CIG 004V008
KIWD 181308Z AUTO 29006KT 10SM SCT007 BKN011 OVC018 16/15 A2982 RMK AO2
KIWD 181256Z AUTO 29006KT 7SM SCT007 SCT012 OVC018 16/15 A2982 RMK AO2 RAE51 SLP096 P0001 T01560150
KIWD 181254Z AUTO 29006KT 6SM BR SCT007 SCT012 OVC018 16/15 A2981 RMK AO2 RAE51 P0001
KIWD 181234Z AUTO 30006KT 2 1/2SM -RA BR BKN007 OVC016 15/14 A2981 RMK AO2 VIS 1 1/2V5 P0001 TSNO
KIWD 181227Z AUTO 31007KT 3SM -RA BR BKN007 BKN014 OVC018 15/14 A2981 RMK AO2 CIG 004V010 P0001
TAF
KIWD 181120Z 1812/1912 31011KT P6SM BKN011 OVC020 TEMPO 1812/1814 4SM -RA BR BKN007 FM181400 31010KT P6SM BKN020 FM181600 31009KT P6SM SCT025 BKN250 FM190000 27005KT P6SM BKN200